createdAt,value
2022-11-10T00:00:27.116Z,69.03
2022-11-10T00:03:13.409Z,77.72
2022-11-10T00:05:59.038Z,79.85
2022-11-10T00:08:45.263Z,80.70
2022-11-10T00:11:31.340Z,72.82
2022-11-10T00:14:35.978Z,73.70
2022-11-10T00:17:21.952Z,82.25
2022-11-10T00:20:08.509Z,78.70
2022-11-10T00:22:55.615Z,73.78
2022-11-10T00:25:41.548Z,78.10
2022-11-10T00:28:27.706Z,82.68
2022-11-10T00:31:14.589Z,80.80
2022-11-10T00:34:00.467Z,77.60
2022-11-10T00:36:46.425Z,81.20
2022-11-10T00:42:18.216Z,76.40
2022-11-10T00:45:04.342Z,75.65
2022-11-10T00:47:50.691Z,83.30
2022-11-10T00:50:36.684Z,77.43
2022-11-10T00:53:23.209Z,76.40
2022-11-10T00:56:09.475Z,79.05
2022-11-10T00:58:55.723Z,78.57
2022-11-10T01:01:41.408Z,76.53
2022-11-10T01:04:27.490Z,77.97
2022-11-10T01:07:13.480Z,78.43
2022-11-10T01:09:59.395Z,79.72
2022-11-10T01:12:45.361Z,73.70
2022-11-10T01:15:31.362Z,79.15
2022-11-10T01:18:17.949Z,71.65
2022-11-10T01:21:04.397Z,72.63
2022-11-10T01:23:50.493Z,75.47
2022-11-10T01:26:36.828Z,75.32
2022-11-10T01:29:22.946Z,75.07
2022-11-10T01:32:08.927Z,79.20
2022-11-10T01:34:54.978Z,81.32
2022-11-10T01:37:40.940Z,75.60
2022-11-10T01:40:27.375Z,82.22
2022-11-10T01:43:13.956Z,74.85
2022-11-10T01:46:02.735Z,78.88
2022-11-10T01:48:50.518Z,75.13
2022-11-10T01:51:42.762Z,74.00
2022-11-10T01:54:33.362Z,73.88
2022-11-10T01:57:19.147Z,81.60
2022-11-10T02:00:05.369Z,76.55
2022-11-10T02:03:17.872Z,83.53
2022-11-10T02:06:05.161Z,75.93
2022-11-10T02:08:51.654Z,80.70
2022-11-10T02:11:38.493Z,74.78
2022-11-10T02:14:24.376Z,78.38
2022-11-10T02:17:10.683Z,74.50
2022-11-10T02:19:59.784Z,76.65
2022-11-10T02:22:46.340Z,77.78
2022-11-10T02:25:33.365Z,80.57
2022-11-10T02:28:19.321Z,83.97
2022-11-10T02:31:06.150Z,79.72
2022-11-10T02:33:51.998Z,80.90
2022-11-10T02:36:37.875Z,82.97
2022-11-10T02:39:23.957Z,88.43
2022-11-10T02:42:10.502Z,84.13
2022-11-10T02:44:56.819Z,84.07
2022-11-10T02:47:42.972Z,81.03
2022-11-10T02:50:29.070Z,79.15
2022-11-10T02:53:15.053Z,81.78
2022-11-10T02:56:00.944Z,78.13
2022-11-10T02:58:46.962Z,84.88
2022-11-10T03:01:32.912Z,85.28
2022-11-10T03:04:18.792Z,86.53
2022-11-10T03:07:04.941Z,84.47
2022-11-10T03:09:50.796Z,90.20
2022-11-10T03:12:36.884Z,84.65
2022-11-10T03:15:23.429Z,90.05
2022-11-10T03:18:10.167Z,80.93
2022-11-10T03:20:56.302Z,86.88
2022-11-10T03:23:42.237Z,90.70
2022-11-10T03:26:28.262Z,90.93
2022-11-10T03:29:14.220Z,87.32
2022-11-10T03:32:00.064Z,88.57
2022-11-10T03:34:46.130Z,86.78
2022-11-10T03:37:31.969Z,88.40
2022-11-10T03:40:17.989Z,91.15
2022-11-10T03:43:03.967Z,83.82
2022-11-10T03:45:49.937Z,83.80
2022-11-10T03:48:35.882Z,90.43
2022-11-10T03:51:22.219Z,92.47
2022-11-10T03:54:07.955Z,82.50
2022-11-10T03:56:54.002Z,90.45
2022-11-10T03:59:40.152Z,94.03
2022-11-10T04:02:25.964Z,90.47
2022-11-10T04:05:30.762Z,90.03
2022-11-10T04:08:36.098Z,92.85
2022-11-10T04:11:40.663Z,95.00
2022-11-10T04:14:45.227Z,96.07
2022-11-10T04:17:31.388Z,87.43
2022-11-10T04:20:17.230Z,95.13
2022-11-10T04:23:21.940Z,94.70
2022-11-10T04:26:28.295Z,92.57
2022-11-10T04:29:14.262Z,92.82
2022-11-10T04:31:59.975Z,87.18
2022-11-10T04:34:45.881Z,90.03
2022-11-10T04:37:32.034Z,97.30
2022-11-10T04:40:18.413Z,97.50
2022-11-10T04:43:04.290Z,93.68
2022-11-10T04:45:50.366Z,98.15
2022-11-10T04:48:36.594Z,90.50
2022-11-10T04:51:25.638Z,96.57
2022-11-10T04:54:12.661Z,87.13
2022-11-10T04:56:58.603Z,91.60
2022-11-10T04:59:44.641Z,93.20
2022-11-10T05:02:33.422Z,99.10
2022-11-10T05:05:22.674Z,93.72
2022-11-10T05:08:09.214Z,90.55
2022-11-10T05:10:54.858Z,96.70
2022-11-10T05:13:41.238Z,95.20
2022-11-10T05:16:27.504Z,92.05
2022-11-10T05:19:13.507Z,103.47
2022-11-10T05:21:59.679Z,97.20
2022-11-10T05:24:45.559Z,95.38
2022-11-10T05:27:31.494Z,100.50
2022-11-10T05:30:18.093Z,91.75
2022-11-10T05:33:04.432Z,94.43
2022-11-10T05:35:50.791Z,97.13
2022-11-10T05:38:42.136Z,101.38
2022-11-10T05:41:29.332Z,99.65
2022-11-10T05:44:15.246Z,91.72
2022-11-10T05:47:01.228Z,89.47
2022-11-10T05:49:47.242Z,92.90
2022-11-10T05:52:33.226Z,91.00
2022-11-10T05:55:20.481Z,96.10
2022-11-10T05:58:06.138Z,98.72
2022-11-10T06:00:52.156Z,104.22
2022-11-10T06:03:38.136Z,93.93
2022-11-10T06:06:23.969Z,99.50
2022-11-10T06:09:09.958Z,105.60
2022-11-10T06:11:55.980Z,95.60
2022-11-10T06:14:41.792Z,102.65
2022-11-10T06:17:28.025Z,97.72
2022-11-10T06:20:17.129Z,102.60
2022-11-10T06:23:07.249Z,102.18
2022-11-10T06:25:53.028Z,87.65
2022-11-10T06:28:39.091Z,83.72
2022-11-10T06:31:24.946Z,79.15
2022-11-10T06:34:10.859Z,81.03
2022-11-10T06:36:56.981Z,117.15
2022-11-10T06:39:42.907Z,91.40
2022-11-10T06:42:29.112Z,155.05
2022-11-10T06:45:15.152Z,141.63
2022-11-10T06:48:08.479Z,91.05
2022-11-10T06:50:54.671Z,128.73
2022-11-10T06:53:40.617Z,121.95
2022-11-10T06:56:26.631Z,148.65
2022-11-10T06:59:12.497Z,81.93
2022-11-10T07:01:58.678Z,104.53
2022-11-10T07:04:44.641Z,113.75
2022-11-10T07:07:30.753Z,91.60
2022-11-10T07:10:16.395Z,134.82
2022-11-10T07:13:03.144Z,97.45
2022-11-10T07:15:49.279Z,114.80
2022-11-10T07:18:35.958Z,102.03
2022-11-10T07:21:21.662Z,87.18
2022-11-10T07:24:07.842Z,90.18
2022-11-10T07:26:53.642Z,95.03
2022-11-10T07:29:39.930Z,90.32
2022-11-10T07:32:25.906Z,82.35
2022-11-10T07:35:11.878Z,81.65
2022-11-10T07:37:58.710Z,83.20
2022-11-10T07:40:44.511Z,79.03
2022-11-10T07:43:30.513Z,78.70
2022-11-10T07:46:16.556Z,71.10
2022-11-10T07:49:02.520Z,75.88
2022-11-10T07:51:48.720Z,78.65
2022-11-10T07:54:34.720Z,73.68
2022-11-10T07:57:20.659Z,71.22
2022-11-10T08:00:07.381Z,72.72
2022-11-10T08:02:53.672Z,80.97
2022-11-10T08:05:39.729Z,81.35
2022-11-10T08:08:25.833Z,85.63
2022-11-10T08:11:12.245Z,83.78
2022-11-10T08:13:58.508Z,85.15
2022-11-10T08:16:44.706Z,85.97
2022-11-10T08:19:30.645Z,85.80
2022-11-10T08:22:16.578Z,76.95
2022-11-10T08:25:02.494Z,77.05
2022-11-10T08:27:48.515Z,78.35
2022-11-10T08:30:35.726Z,80.30
2022-11-10T08:33:22.651Z,64.95
2022-11-10T08:36:10.133Z,63.22
2022-11-10T08:38:56.028Z,56.42
2022-11-10T08:41:42.192Z,53.63
2022-11-10T08:44:28.202Z,58.97
2022-11-10T08:47:14.344Z,55.40
2022-11-10T08:50:00.403Z,53.97
2022-11-10T08:52:46.327Z,53.50
2022-11-10T08:55:32.380Z,59.20
2022-11-10T08:58:19.934Z,56.40
2022-11-10T09:01:09.755Z,57.97
2022-11-10T09:03:55.567Z,57.75
2022-11-10T09:06:41.543Z,61.67
2022-11-10T09:09:27.531Z,54.38
2022-11-10T09:12:13.558Z,53.25
2022-11-10T09:14:59.666Z,55.53
2022-11-10T09:17:45.622Z,58.95
2022-11-10T09:20:33.079Z,55.13
2022-11-10T09:23:19.786Z,66.03
2022-11-10T09:26:07.357Z,58.03
2022-11-10T09:28:53.622Z,151.63
2022-11-10T09:31:39.910Z,77.72
2022-11-10T09:34:25.769Z,71.97
2022-11-10T09:37:11.984Z,86.63
2022-11-10T09:40:01.368Z,112.03
2022-11-10T09:42:48.522Z,86.00
2022-11-10T09:45:39.342Z,60.10
2022-11-10T09:48:33.863Z,52.78
2022-11-10T09:51:25.705Z,52.00
2022-11-10T09:54:17.809Z,50.40
2022-11-10T09:57:05.711Z,51.70
2022-11-10T09:59:52.102Z,47.75
2022-11-10T10:02:42.999Z,51.80
2022-11-10T10:05:48.224Z,48.92
2022-11-10T10:08:52.359Z,53.38
2022-11-10T10:11:53.810Z,48.17
2022-11-10T10:14:58.593Z,47.65
2022-11-10T10:17:49.913Z,42.80
2022-11-10T10:20:38.887Z,41.03
2022-11-10T10:24:02.688Z,36.28
2022-11-10T10:26:49.012Z,38.97
2022-11-10T10:29:40.389Z,39.47
2022-11-10T10:32:27.313Z,34.88
2022-11-10T10:35:14.353Z,36.20
2022-11-10T10:38:01.371Z,33.78
2022-11-10T10:40:49.248Z,34.80
2022-11-10T10:43:35.338Z,32.10
2022-11-10T10:46:28.329Z,37.17
2022-11-10T10:49:28.675Z,32.42
2022-11-10T10:52:16.959Z,34.45
2022-11-10T10:55:06.320Z,30.70
2022-11-10T10:57:53.606Z,35.58
2022-11-10T11:00:46.612Z,25.23
2022-11-10T11:03:41.922Z,30.42
2022-11-10T11:09:24.246Z,33.25
2022-11-10T11:12:12.444Z,32.90
2022-11-10T11:15:14.407Z,29.20
2022-11-10T11:18:02.554Z,29.85
2022-11-10T11:21:09.383Z,28.80
2022-11-10T11:24:01.279Z,27.88
2022-11-10T11:26:57.763Z,31.50
2022-11-10T11:29:47.236Z,32.45
2022-11-10T11:32:32.915Z,32.55
2022-11-10T11:35:21.927Z,33.03
2022-11-10T11:38:15.978Z,34.08
2022-11-10T11:41:01.940Z,33.95
2022-11-10T11:43:57.283Z,34.83
2022-11-10T11:47:02.039Z,30.98
2022-11-10T11:50:14.838Z,31.50
2022-11-10T11:53:03.942Z,30.02
2022-11-10T11:55:59.461Z,31.15
2022-11-10T11:58:57.636Z,34.53
2022-11-10T12:02:03.815Z,31.30
2022-11-10T12:05:03.367Z,28.50
2022-11-10T12:08:07.711Z,27.30
2022-11-10T12:11:19.926Z,30.25
2022-11-10T12:14:24.464Z,30.75
2022-11-10T12:17:13.189Z,28.00
2022-11-10T12:20:08.701Z,28.90
2022-11-10T12:22:57.711Z,30.10
2022-11-10T12:26:02.534Z,27.50
2022-11-10T12:28:59.879Z,27.83
2022-11-10T12:31:47.028Z,32.17
2022-11-10T12:34:37.761Z,31.30
2022-11-10T12:37:43.842Z,27.25
2022-11-10T12:40:32.195Z,31.05
2022-11-10T12:43:36.954Z,29.42
2022-11-10T12:46:22.670Z,30.83
2022-11-10T12:49:14.712Z,31.63
2022-11-10T12:52:03.958Z,27.90
2022-11-10T12:54:50.417Z,29.45
2022-11-10T12:57:38.420Z,29.95
2022-11-10T13:00:28.083Z,28.50
2022-11-10T13:03:50.101Z,31.33
2022-11-10T13:06:36.766Z,29.38
2022-11-10T13:09:31.090Z,31.08
2022-11-10T13:12:21.571Z,33.92
2022-11-10T13:15:27.182Z,31.15
2022-11-10T13:18:22.804Z,32.40
2022-11-10T13:21:09.194Z,31.55
2022-11-10T13:23:59.460Z,34.15
2022-11-10T13:26:45.549Z,33.05
2022-11-10T13:29:37.610Z,30.30
2022-11-10T13:32:23.355Z,32.20
2022-11-10T13:35:28.135Z,30.77
2022-11-10T13:38:41.229Z,33.50
2022-11-10T13:41:27.645Z,29.40
2022-11-10T13:44:22.722Z,28.17
2022-11-10T13:47:08.881Z,32.70
2022-11-10T13:50:19.588Z,35.08
2022-11-10T13:53:05.211Z,32.55
2022-11-10T13:56:00.583Z,34.05
2022-11-10T13:58:46.720Z,38.85
2022-11-10T14:01:32.509Z,35.45
2022-11-10T14:04:37.385Z,34.38
2022-11-10T14:07:23.833Z,35.40
2022-11-10T14:10:27.061Z,32.58
2022-11-10T14:13:29.088Z,39.75
2022-11-10T14:16:25.543Z,35.47
2022-11-10T14:19:30.004Z,40.47
2022-11-10T14:22:30.944Z,52.58
2022-11-10T14:25:21.703Z,33.85
2022-11-10T14:28:40.162Z,41.70
2022-11-10T14:31:26.708Z,45.20
2022-11-10T14:34:17.208Z,39.88
2022-11-10T14:37:04.087Z,49.40
2022-11-10T14:39:51.270Z,52.47
2022-11-10T14:42:39.558Z,44.92
2022-11-10T14:45:26.591Z,55.72
2022-11-10T14:48:18.894Z,69.82
2022-11-10T14:51:15.870Z,66.47
2022-11-10T14:54:02.989Z,70.20
2022-11-10T14:56:49.405Z,62.72
2022-11-10T14:59:35.486Z,60.28
2022-11-10T15:02:21.688Z,57.88
2022-11-10T15:05:10.090Z,60.53
2022-11-10T15:07:58.139Z,58.22
2022-11-10T15:10:45.671Z,56.50
2022-11-10T15:13:34.395Z,55.08
2022-11-10T15:16:25.579Z,52.28
2022-11-10T15:19:23.102Z,59.55
2022-11-10T15:22:12.215Z,52.10
2022-11-10T15:25:00.414Z,59.67
2022-11-10T15:28:06.422Z,59.17
2022-11-10T15:30:54.347Z,54.55
2022-11-10T15:33:45.678Z,116.43
2022-11-10T15:36:32.291Z,82.18
2022-11-10T15:39:23.442Z,98.90
2022-11-10T15:42:13.996Z,102.07
2022-11-10T15:44:59.831Z,101.57
2022-11-10T15:47:46.157Z,104.70
2022-11-10T15:50:31.953Z,111.20
2022-11-10T15:53:21.571Z,113.97
2022-11-10T15:56:09.213Z,110.35
2022-11-10T15:58:59.234Z,92.10
2022-11-10T16:01:47.794Z,118.32
2022-11-10T16:04:33.751Z,182.50
2022-11-10T16:07:19.914Z,380.67
2022-11-10T16:10:06.679Z,396.13
2022-11-10T16:12:52.566Z,192.93
2022-11-10T16:15:39.616Z,162.18
2022-11-10T16:18:27.049Z,145.40
2022-11-10T16:21:23.896Z,127.93
2022-11-10T16:24:10.088Z,139.32
2022-11-10T16:26:56.262Z,123.88
2022-11-10T16:29:42.721Z,133.95
2022-11-10T16:32:28.958Z,115.72
2022-11-10T16:35:15.318Z,125.60
2022-11-10T16:38:01.214Z,121.40
2022-11-10T16:41:10.129Z,144.98
2022-11-10T16:43:56.104Z,164.90
2022-11-10T16:46:43.056Z,164.10
2022-11-10T16:49:33.420Z,155.50
2022-11-10T16:52:21.341Z,149.27
2022-11-10T16:55:07.535Z,126.90
2022-11-10T16:57:56.393Z,88.32
2022-11-10T17:00:44.153Z,90.97
2022-11-10T17:03:43.833Z,116.03
2022-11-10T17:06:30.513Z,95.28
2022-11-10T17:09:18.573Z,87.85
2022-11-10T17:12:04.656Z,141.10
2022-11-10T17:14:50.583Z,195.35
2022-11-10T17:17:37.380Z,224.98
2022-11-10T17:20:28.414Z,162.75
2022-11-10T17:23:24.125Z,150.75
2022-11-10T17:26:11.049Z,130.77
2022-11-10T17:28:57.094Z,112.07
2022-11-10T17:31:43.098Z,109.97
2022-11-10T17:34:29.113Z,113.07
2022-11-10T17:37:15.539Z,102.45
2022-11-10T17:40:04.182Z,89.15
2022-11-10T17:42:52.382Z,96.97
2022-11-10T17:45:38.299Z,97.63
2022-11-10T17:48:24.253Z,117.43
2022-11-10T17:51:14.557Z,107.20
2022-11-10T17:54:07.498Z,106.25
2022-11-10T17:56:54.113Z,107.40
2022-11-10T17:59:39.843Z,106.72
2022-11-10T18:02:25.843Z,105.30
2022-11-10T18:05:17.571Z,108.43
2022-11-10T18:08:03.528Z,157.32
2022-11-10T18:10:50.787Z,104.72
2022-11-10T18:13:40.783Z,147.95
2022-11-10T18:16:30.696Z,120.03
2022-11-10T18:19:16.917Z,115.68
2022-11-10T18:22:02.808Z,130.80
2022-11-10T18:24:48.667Z,170.48
2022-11-10T18:27:36.155Z,164.93
2022-11-10T18:30:22.034Z,180.00
2022-11-10T18:33:08.065Z,176.85
2022-11-10T18:35:59.885Z,158.27
2022-11-10T18:38:45.994Z,148.85
2022-11-10T18:41:50.920Z,169.43
2022-11-10T18:44:37.225Z,144.52
2022-11-10T18:47:23.475Z,140.23
2022-11-10T18:50:09.942Z,150.27
2022-11-10T18:52:56.176Z,159.00
2022-11-10T18:55:45.552Z,153.13
2022-11-10T18:58:31.758Z,150.27
2022-11-10T19:04:03.684Z,144.55
2022-11-10T19:06:50.145Z,152.60
2022-11-10T19:09:36.122Z,147.85
2022-11-10T19:12:26.405Z,145.50
2022-11-10T19:15:12.624Z,142.07
2022-11-10T19:17:59.107Z,139.15
2022-11-10T19:20:45.910Z,142.18
2022-11-10T19:23:31.683Z,149.95
2022-11-10T19:26:22.565Z,145.00
2022-11-10T19:29:08.925Z,152.77
2022-11-10T19:31:56.640Z,141.40
2022-11-10T19:34:42.885Z,140.50
2022-11-10T19:37:33.516Z,139.85
2022-11-10T19:40:21.125Z,141.57
2022-11-10T19:43:08.275Z,147.02
2022-11-10T19:45:55.108Z,129.75
2022-11-10T19:48:41.110Z,148.45
2022-11-10T19:51:28.567Z,139.25
2022-11-10T19:54:14.722Z,138.27
2022-11-10T19:57:01.889Z,130.93
2022-11-10T19:59:47.830Z,139.90
2022-11-10T20:02:33.696Z,140.55
2022-11-10T20:05:19.688Z,143.68
2022-11-10T20:08:12.074Z,146.77
2022-11-10T20:11:21.881Z,137.82
2022-11-10T20:14:07.833Z,138.27
2022-11-10T20:16:53.970Z,127.68
2022-11-10T20:19:41.042Z,132.95
2022-11-10T20:22:27.577Z,150.95
2022-11-10T20:25:13.453Z,149.43
2022-11-10T20:28:03.396Z,144.88
2022-11-10T20:30:49.292Z,133.88
2022-11-10T20:33:35.521Z,121.13
2022-11-10T20:36:23.071Z,122.03
2022-11-10T20:39:08.881Z,115.20
2022-11-10T20:41:54.747Z,118.07
2022-11-10T20:44:41.152Z,118.45
2022-11-10T20:47:28.647Z,121.00
2022-11-10T20:50:17.197Z,123.55
2022-11-10T20:53:05.765Z,122.55
2022-11-10T20:55:57.750Z,118.47
2022-11-10T20:58:45.267Z,134.00
2022-11-10T21:01:32.612Z,123.15
2022-11-10T21:04:18.600Z,115.60
2022-11-10T21:07:05.700Z,122.53
2022-11-10T21:09:52.015Z,117.18
2022-11-10T21:12:49.973Z,120.82
2022-11-10T21:15:37.693Z,117.78
2022-11-10T21:18:24.363Z,118.25
2022-11-10T21:21:19.955Z,109.85
2022-11-10T21:24:06.732Z,115.13
2022-11-10T21:26:52.582Z,112.28
2022-11-10T21:29:38.595Z,107.40
2022-11-10T21:32:24.503Z,108.65
2022-11-10T21:35:10.405Z,116.60
2022-11-10T21:37:56.513Z,104.53
2022-11-10T21:40:42.407Z,107.68
2022-11-10T21:43:28.344Z,100.15
2022-11-10T21:46:14.373Z,100.65
2022-11-10T21:49:06.073Z,108.20
2022-11-10T21:51:53.412Z,101.68
2022-11-10T21:54:39.603Z,109.18
2022-11-10T21:57:25.778Z,100.53
2022-11-10T22:00:12.800Z,99.07
2022-11-10T22:02:59.620Z,97.35
2022-11-10T22:05:45.357Z,97.32
2022-11-10T22:08:31.389Z,95.78
2022-11-10T22:11:37.996Z,99.88
2022-11-10T22:14:42.665Z,98.65
2022-11-10T22:17:47.047Z,100.32
2022-11-10T22:20:32.923Z,95.00
2022-11-10T22:23:18.955Z,91.22
2022-11-10T22:26:04.874Z,94.45
2022-11-10T22:28:50.731Z,97.63
2022-11-10T22:31:36.735Z,94.03
2022-11-10T22:34:22.799Z,93.80
2022-11-10T22:37:09.130Z,92.85
2022-11-10T22:40:13.750Z,90.03
2022-11-10T22:43:18.222Z,88.43
2022-11-10T22:46:04.142Z,90.45
2022-11-10T22:48:50.155Z,94.60
2022-11-10T22:51:36.709Z,93.22
2022-11-10T22:54:23.770Z,92.13
2022-11-10T22:57:09.434Z,90.20
2022-11-10T22:59:55.491Z,87.53
2022-11-10T23:02:41.869Z,89.57
2022-11-10T23:05:27.882Z,82.32
2022-11-10T23:08:13.760Z,83.82
2022-11-10T23:10:59.928Z,89.88
2022-11-10T23:13:45.821Z,86.05
2022-11-10T23:16:33.426Z,83.40
2022-11-10T23:19:19.326Z,83.97
2022-11-10T23:22:05.370Z,81.25
2022-11-10T23:24:56.723Z,89.78
2022-11-10T23:27:43.126Z,82.00
2022-11-10T23:30:29.263Z,88.95
2022-11-10T23:33:15.153Z,86.00
2022-11-10T23:36:01.285Z,80.00
2022-11-10T23:38:48.786Z,78.70
2022-11-10T23:41:34.993Z,76.30
2022-11-10T23:44:21.773Z,79.15
2022-11-10T23:47:07.519Z,80.13
2022-11-10T23:49:53.432Z,88.30
2022-11-10T23:52:39.390Z,81.55
2022-11-10T23:55:25.431Z,75.30
2022-11-10T23:58:11.532Z,84.68
